createdAt,value
2022-09-05T00:00:34.818Z,1.00
2022-09-05T00:03:45.230Z,1.15
2022-09-05T00:06:51.408Z,1.13
2022-09-05T00:10:05.894Z,1.42
2022-09-05T00:13:19.079Z,1.30
2022-09-05T00:16:39.587Z,1.20
2022-09-05T00:24:32.274Z,1.20
2022-09-05T00:24:36.938Z,1.25
2022-09-05T00:26:50.046Z,1.10
2022-09-05T00:31:07.125Z,1.30
2022-09-05T00:33:29.145Z,1.63
2022-09-05T00:36:38.421Z,1.30
2022-09-05T00:39:52.534Z,1.20
2022-09-05T00:43:08.817Z,1.33
2022-09-05T00:46:15.383Z,1.40
2022-09-05T00:49:20.657Z,1.30
2022-09-05T00:52:28.395Z,1.40
2022-09-05T00:55:38.897Z,1.30
2022-09-05T00:58:48.574Z,1.38
2022-09-05T01:01:54.637Z,1.15
2022-09-05T01:05:00.618Z,1.05
2022-09-05T01:08:14.533Z,1.48
2022-09-05T01:11:20.680Z,2.28
2022-09-05T01:14:29.165Z,1.40
2022-09-05T01:17:39.316Z,1.20
2022-09-05T01:20:49.433Z,1.50
2022-09-05T01:24:01.143Z,1.23
2022-09-05T01:27:22.589Z,1.20
2022-09-05T01:30:34.650Z,1.35
2022-09-05T01:33:43.838Z,1.50
2022-09-05T01:36:51.747Z,1.40
2022-09-05T01:40:14.273Z,1.45
2022-09-05T01:43:26.563Z,1.33
2022-09-05T01:46:37.305Z,1.30
2022-09-05T01:49:48.450Z,1.20
2022-09-05T01:53:05.653Z,1.42
2022-09-05T01:56:15.418Z,1.35
2022-09-05T01:59:26.963Z,1.40
2022-09-05T02:02:39.172Z,1.45
2022-09-05T02:05:56.966Z,1.23
2022-09-05T02:09:06.357Z,1.42
2022-09-05T02:12:17.537Z,1.40
2022-09-05T02:15:25.157Z,1.70
2022-09-05T02:18:33.079Z,1.40
2022-09-05T02:21:56.908Z,1.48
2022-09-05T02:26:00.276Z,1.45
2022-09-05T02:28:37.002Z,1.77
2022-09-05T02:31:46.214Z,1.70
2022-09-05T02:34:55.998Z,1.58
2022-09-05T02:42:21.117Z,1.65
2022-09-05T02:45:18.443Z,1.67
2022-09-05T02:45:24.502Z,1.38
2022-09-05T02:48:31.098Z,1.67
2022-09-05T02:57:35.752Z,1.60
2022-09-05T02:57:46.832Z,1.80
2022-09-05T02:58:53.230Z,1.50
2022-09-05T03:02:02.067Z,1.60
2022-09-05T03:05:15.032Z,1.67
2022-09-05T03:08:27.252Z,1.77
2022-09-05T03:11:45.768Z,1.90
2022-09-05T03:15:03.532Z,1.73
2022-09-05T03:18:42.057Z,1.63
2022-09-05T03:21:59.561Z,2.13
2022-09-05T03:25:17.019Z,2.08
2022-09-05T03:28:31.767Z,2.10
2022-09-05T03:31:44.617Z,1.83
2022-09-05T03:34:57.186Z,1.80
2022-09-05T03:38:10.938Z,2.45
2022-09-05T03:41:19.700Z,2.00
2022-09-05T03:44:33.499Z,2.53
2022-09-05T03:47:58.440Z,1.95
2022-09-05T03:57:04.264Z,1.85
2022-09-05T03:57:25.425Z,2.30
2022-09-05T03:58:58.734Z,2.15
2022-09-05T04:04:03.751Z,2.33
2022-09-05T04:08:28.482Z,2.13
2022-09-05T04:08:53.971Z,2.33
2022-09-05T04:11:58.833Z,2.35
2022-09-05T04:15:06.624Z,1.92
2022-09-05T04:18:15.559Z,1.83
2022-09-05T04:21:21.611Z,1.85
2022-09-05T04:24:28.064Z,2.05
2022-09-05T04:27:35.758Z,2.05
2022-09-05T04:30:44.581Z,2.30
2022-09-05T04:33:50.831Z,2.00
2022-09-05T04:37:01.243Z,2.30
2022-09-05T04:40:18.726Z,1.95
2022-09-05T04:43:25.175Z,2.55
2022-09-05T04:46:31.314Z,1.90
2022-09-05T04:49:39.445Z,2.03
2022-09-05T04:52:50.564Z,2.17
2022-09-05T04:55:57.751Z,2.00
2022-09-05T05:01:56.080Z,1.90
2022-09-05T05:06:08.725Z,1.80
2022-09-05T05:06:09.767Z,2.17
2022-09-05T05:09:21.978Z,2.17
2022-09-05T05:18:00.790Z,2.03
2022-09-05T05:18:08.953Z,2.20
2022-09-05T05:19:21.897Z,2.10
2022-09-05T05:22:25.031Z,1.95
2022-09-05T05:25:28.230Z,2.15
2022-09-05T05:28:39.675Z,1.98
2022-09-05T05:31:48.524Z,2.05
2022-09-05T05:34:56.537Z,2.53
2022-09-05T05:38:08.206Z,2.47
2022-09-05T05:41:18.446Z,2.40
2022-09-05T05:44:22.723Z,2.65
2022-09-05T05:47:31.925Z,2.38
2022-09-05T05:50:43.065Z,2.55
2022-09-05T05:53:52.399Z,2.05
2022-09-05T05:57:14.879Z,2.25
2022-09-05T06:00:27.699Z,2.45
2022-09-05T06:03:47.149Z,2.40
2022-09-05T06:07:03.283Z,2.55
2022-09-05T06:14:49.044Z,2.50
2022-09-05T06:15:06.633Z,2.45
2022-09-05T06:17:51.068Z,2.15
2022-09-05T06:22:06.314Z,2.17
2022-09-05T06:25:16.462Z,2.10
2022-09-05T06:28:23.849Z,2.25
2022-09-05T06:31:37.256Z,1.85
2022-09-05T06:35:03.916Z,2.08
2022-09-05T06:38:23.306Z,1.70
2022-09-05T06:41:30.802Z,2.22
2022-09-05T06:44:40.432Z,2.60
2022-09-05T06:47:45.685Z,2.10
2022-09-05T06:51:18.373Z,2.20
2022-09-05T06:54:30.166Z,2.10
2022-09-05T06:57:55.260Z,2.20
2022-09-05T07:01:01.971Z,1.90
2022-09-05T07:05:05.249Z,2.65
2022-09-05T07:07:41.300Z,1.98
2022-09-05T07:10:52.580Z,1.85
2022-09-05T07:13:57.629Z,2.15
2022-09-05T07:17:06.759Z,2.35
2022-09-05T07:20:15.423Z,2.00
2022-09-05T07:24:06.751Z,1.98
2022-09-05T07:26:54.230Z,2.33
2022-09-05T07:30:01.705Z,2.22
2022-09-05T07:33:09.297Z,1.80
2022-09-05T07:36:16.923Z,2.38
2022-09-05T07:39:28.891Z,2.28
2022-09-05T07:42:44.142Z,2.35
2022-09-05T07:46:06.136Z,2.25
2022-09-05T07:49:12.916Z,2.55
2022-09-05T07:56:55.402Z,1.77
2022-09-05T07:57:12.724Z,1.70
2022-09-05T07:59:08.490Z,1.80
2022-09-05T08:02:14.645Z,2.03
2022-09-05T08:05:34.416Z,2.20
2022-09-05T08:08:40.921Z,2.15
2022-09-05T08:11:48.214Z,2.40
2022-09-05T08:14:57.649Z,2.25
2022-09-05T08:18:12.214Z,1.95
2022-09-05T08:21:27.843Z,2.20
2022-09-05T08:24:36.548Z,1.90
2022-09-05T08:27:43.980Z,2.08
2022-09-05T08:30:49.759Z,2.35
2022-09-05T08:34:09.972Z,1.65
2022-09-05T08:37:20.936Z,2.45
2022-09-05T08:40:28.480Z,2.25
2022-09-05T08:45:35.169Z,2.10
2022-09-05T08:47:06.780Z,2.40
2022-09-05T08:50:26.899Z,2.05
2022-09-05T08:53:45.517Z,2.33
2022-09-05T08:56:53.437Z,2.30
2022-09-05T09:00:18.558Z,2.60
2022-09-05T09:03:27.410Z,2.63
2022-09-05T09:06:39.226Z,2.85
2022-09-05T09:09:46.536Z,3.17
2022-09-05T09:13:04.336Z,3.08
2022-09-05T09:16:09.901Z,2.55
2022-09-05T09:19:14.481Z,2.63
2022-09-05T09:22:23.637Z,2.75
2022-09-05T09:25:33.183Z,2.20
2022-09-05T09:28:52.021Z,2.38
2022-09-05T09:32:02.643Z,2.25
2022-09-05T09:35:09.568Z,1.98
2022-09-05T09:38:23.832Z,2.20
2022-09-05T09:41:56.918Z,2.55
2022-09-05T09:45:27.809Z,1.88
2022-09-05T09:48:47.520Z,1.95
2022-09-05T09:52:08.358Z,2.35
2022-09-05T09:56:06.102Z,2.13
2022-09-05T09:59:19.441Z,1.98
2022-09-05T10:04:39.611Z,1.90
2022-09-05T10:10:46.312Z,1.73
2022-09-05T10:10:58.569Z,1.98
2022-09-05T10:13:14.503Z,1.90
2022-09-05T10:16:37.574Z,1.75
2022-09-05T10:23:35.290Z,1.80
2022-09-05T10:26:57.586Z,2.13
2022-09-05T10:30:07.975Z,1.98
2022-09-05T10:35:10.731Z,1.77
2022-09-05T10:36:52.183Z,1.98
2022-09-05T10:39:55.799Z,1.65
2022-09-05T10:43:02.366Z,1.42
2022-09-05T10:46:07.552Z,1.73
2022-09-05T10:49:11.762Z,1.67
2022-09-05T10:52:20.664Z,1.50
2022-09-05T10:55:26.172Z,1.60
2022-09-05T10:59:54.081Z,1.40
2022-09-05T11:02:27.305Z,1.67
2022-09-05T11:05:31.917Z,1.63
2022-09-05T11:08:39.835Z,1.58
2022-09-05T11:11:45.974Z,1.50
2022-09-05T11:14:52.317Z,1.58
2022-09-05T11:17:57.915Z,1.80
2022-09-05T11:21:03.252Z,1.42
2022-09-05T11:24:14.667Z,1.65
2022-09-05T11:27:25.986Z,1.80
2022-09-05T11:30:38.172Z,1.85
2022-09-05T11:39:45.624Z,1.35
2022-09-05T11:40:08.379Z,1.60
2022-09-05T11:55:38.685Z,1.60
2022-09-05T11:58:50.695Z,1.60
2022-09-05T12:02:16.631Z,1.50
2022-09-05T12:05:49.774Z,1.80
2022-09-05T12:09:02.666Z,1.52
2022-09-05T12:12:41.095Z,1.60
2022-09-05T12:16:00.639Z,1.67
2022-09-05T12:19:40.566Z,1.83
2022-09-05T12:23:35.193Z,1.70
2022-09-05T12:27:40.394Z,1.73
2022-09-05T12:30:14.898Z,1.52
2022-09-05T12:36:01.875Z,1.58
2022-09-05T12:41:37.361Z,1.85
2022-09-05T12:41:42.381Z,1.80
2022-09-05T12:44:38.664Z,1.33
2022-09-05T12:47:18.757Z,1.77
2022-09-05T12:50:25.574Z,1.70
2022-09-05T12:53:40.862Z,1.63
2022-09-05T13:00:15.317Z,1.60
2022-09-05T13:03:15.334Z,1.58
2022-09-05T13:07:22.046Z,1.58
2022-09-05T13:13:40.989Z,1.63
2022-09-05T13:15:02.405Z,1.75
2022-09-05T13:17:43.118Z,1.70
2022-09-05T13:20:51.462Z,1.40
2022-09-05T13:24:06.555Z,1.50
2022-09-05T13:27:13.851Z,1.73
2022-09-05T13:31:01.376Z,1.80
2022-09-05T13:38:05.479Z,1.50
2022-09-05T13:38:19.754Z,1.83
2022-09-05T13:40:36.208Z,1.95
2022-09-05T13:43:40.607Z,1.65
2022-09-05T13:46:47.715Z,1.75
2022-09-05T13:49:54.024Z,1.88
2022-09-05T13:53:02.509Z,1.83
2022-09-05T13:56:14.544Z,1.40
2022-09-05T13:59:21.263Z,1.70
2022-09-05T14:10:38.916Z,1.60
2022-09-05T14:14:09.302Z,2.08
2022-09-05T14:22:08.696Z,2.08
2022-09-05T14:26:14.928Z,1.73
2022-09-05T14:29:54.306Z,1.63
2022-09-05T14:55:22.535Z,1.83
2022-09-05T15:02:53.944Z,1.85
2022-09-05T15:07:40.247Z,1.92
2022-09-05T15:12:24.882Z,1.52
2022-09-05T15:14:29.164Z,1.90
2022-09-05T15:17:34.339Z,1.67
2022-09-05T15:20:38.739Z,1.73
2022-09-05T15:23:42.318Z,1.95
2022-09-05T15:26:51.963Z,1.33
2022-09-05T15:29:58.143Z,1.38
2022-09-05T15:33:14.451Z,1.67
2022-09-05T15:36:31.591Z,1.40
2022-09-05T15:44:02.642Z,1.75
2022-09-05T15:47:10.426Z,1.73
2022-09-05T15:50:22.298Z,1.60
2022-09-05T15:53:28.793Z,1.70
2022-09-05T15:56:31.947Z,1.42
2022-09-05T15:59:38.906Z,1.35
2022-09-05T16:03:16.216Z,1.40
2022-09-05T16:10:28.350Z,1.35
2022-09-05T16:10:37.465Z,1.60
2022-09-05T16:13:31.810Z,1.67
2022-09-05T16:23:14.398Z,1.70
2022-09-05T16:23:33.598Z,1.50
2022-09-05T16:23:52.832Z,1.70
2022-09-05T16:26:58.872Z,1.33
2022-09-05T16:30:07.909Z,1.60
2022-09-05T16:33:20.345Z,1.40
2022-09-05T16:36:27.106Z,1.52
2022-09-05T16:39:34.374Z,1.77
2022-09-05T16:42:46.625Z,1.20
2022-09-05T16:45:55.280Z,1.40
2022-09-05T16:49:11.669Z,1.40
2022-09-05T16:52:17.198Z,1.17
2022-09-05T16:55:29.428Z,1.55
2022-09-05T16:58:34.650Z,1.35
2022-09-05T17:01:54.662Z,1.13
2022-09-05T17:05:12.277Z,1.00
2022-09-05T17:08:22.930Z,1.45
2022-09-05T17:11:31.745Z,1.30
2022-09-05T17:14:40.688Z,1.50
2022-09-05T17:18:21.278Z,1.67
2022-09-05T17:22:52.603Z,1.23
2022-09-05T17:29:23.900Z,1.10
2022-09-05T17:29:24.590Z,1.30
2022-09-05T17:31:56.934Z,1.30
2022-09-05T17:35:17.601Z,1.20
2022-09-05T17:38:28.573Z,1.40
2022-09-05T17:41:51.311Z,1.30
2022-09-05T17:44:59.861Z,1.50
2022-09-05T17:48:03.112Z,1.30
2022-09-05T17:51:05.891Z,1.20
2022-09-05T17:54:50.219Z,1.38
2022-09-05T17:58:49.275Z,1.40
2022-09-05T18:02:25.818Z,1.20
2022-09-05T18:05:56.809Z,1.40
2022-09-05T18:09:08.590Z,1.38
2022-09-05T18:12:27.090Z,1.15
2022-09-05T18:15:55.447Z,1.60
2022-09-05T18:19:33.204Z,1.23
2022-09-05T18:22:40.325Z,1.17
2022-09-05T18:25:49.101Z,1.60
2022-09-05T18:28:59.425Z,1.50
2022-09-05T18:32:03.577Z,1.25
2022-09-05T18:35:37.618Z,1.60
2022-09-05T18:38:51.690Z,1.40
2022-09-05T18:41:57.062Z,1.40
2022-09-05T18:45:16.065Z,1.23
2022-09-05T18:48:25.534Z,1.52
2022-09-05T18:51:37.791Z,1.60
2022-09-05T18:54:46.054Z,1.52
2022-09-05T18:58:10.863Z,1.58
2022-09-05T19:01:20.262Z,1.65
2022-09-05T19:04:40.953Z,1.20
2022-09-05T19:07:48.092Z,1.50
2022-09-05T19:10:54.164Z,1.83
2022-09-05T19:14:26.362Z,1.58
2022-09-05T19:17:34.685Z,1.80
2022-09-05T19:21:04.700Z,2.00
2022-09-05T19:24:18.180Z,1.67
2022-09-05T19:27:53.190Z,1.60
2022-09-05T19:37:04.608Z,1.73
2022-09-05T19:37:13.413Z,1.95
2022-09-05T19:37:48.131Z,1.38
2022-09-05T19:47:34.150Z,1.63
2022-09-05T19:47:56.508Z,2.65
2022-09-05T19:48:07.992Z,2.15
2022-09-05T19:51:16.283Z,1.92
2022-09-05T19:54:25.507Z,1.52
2022-09-05T19:57:30.036Z,2.20
2022-09-05T20:00:32.962Z,1.42
2022-09-05T20:03:41.459Z,1.70
2022-09-05T20:06:44.406Z,2.25
2022-09-05T20:09:50.307Z,2.00
2022-09-05T20:12:55.031Z,2.35
2022-09-05T20:16:03.835Z,1.58
2022-09-05T20:19:23.174Z,1.80
2022-09-05T20:22:48.062Z,1.70
2022-09-05T20:25:55.759Z,1.50
2022-09-05T20:29:03.223Z,1.60
2022-09-05T20:32:06.949Z,1.33
2022-09-05T20:37:09.391Z,1.40
2022-09-05T20:43:16.114Z,1.27
2022-09-05T20:43:19.148Z,1.33
2022-09-05T20:45:45.898Z,1.35
2022-09-05T20:54:04.876Z,0.80
2022-09-05T20:54:14.765Z,1.00
2022-09-05T20:56:01.899Z,1.30
2022-09-05T20:59:11.351Z,1.08
2022-09-05T21:02:22.761Z,0.93
2022-09-05T21:05:27.727Z,0.88
2022-09-05T21:08:33.919Z,1.05
2022-09-05T21:11:36.727Z,1.23
2022-09-05T21:14:39.654Z,0.90
2022-09-05T21:17:44.887Z,0.77
2022-09-05T21:20:55.036Z,0.90
2022-09-05T21:24:12.013Z,0.80
2022-09-05T21:27:23.355Z,0.80
2022-09-05T21:30:30.881Z,0.90
2022-09-05T21:33:45.623Z,0.75
2022-09-05T21:36:50.523Z,0.93
2022-09-05T21:40:12.152Z,0.70
2022-09-05T21:47:35.623Z,0.90
2022-09-05T21:47:37.713Z,0.80
2022-09-05T21:50:02.615Z,0.85
2022-09-05T21:54:21.074Z,0.90
2022-09-05T21:59:32.838Z,0.57
2022-09-05T21:59:59.588Z,0.80
2022-09-05T22:03:20.705Z,0.80
2022-09-05T22:06:25.353Z,0.77
2022-09-05T22:09:28.295Z,0.57
2022-09-05T22:12:33.710Z,0.68
2022-09-05T22:15:37.433Z,0.82
2022-09-05T22:18:42.257Z,0.88
2022-09-05T22:21:48.648Z,0.60
2022-09-05T22:24:55.277Z,0.90
2022-09-05T22:28:06.515Z,0.80
2022-09-05T22:31:10.091Z,0.90
2022-09-05T22:34:14.534Z,0.70
2022-09-05T22:37:18.753Z,0.98
2022-09-05T22:40:21.512Z,0.60
2022-09-05T22:43:25.075Z,0.90
2022-09-05T22:46:28.865Z,0.60
2022-09-05T22:49:31.923Z,0.80
2022-09-05T22:52:36.334Z,0.60
2022-09-05T22:55:40.023Z,0.65
2022-09-05T22:58:43.903Z,0.80
2022-09-05T23:01:46.707Z,1.00
2022-09-05T23:04:49.407Z,0.82
2022-09-05T23:07:53.427Z,0.77
2022-09-05T23:10:56.312Z,0.80
2022-09-05T23:13:59.033Z,0.90
2022-09-05T23:17:02.689Z,0.60
2022-09-05T23:20:06.307Z,0.80
2022-09-05T23:23:10.684Z,0.70
2022-09-05T23:26:14.132Z,1.00
2022-09-05T23:29:17.717Z,1.00
2022-09-05T23:32:20.488Z,0.65
2022-09-05T23:35:23.316Z,0.65
2022-09-05T23:38:27.664Z,1.17
2022-09-05T23:41:31.091Z,0.98
2022-09-05T23:44:33.750Z,0.73
2022-09-05T23:47:36.457Z,0.68
2022-09-05T23:50:39.040Z,0.60
2022-09-05T23:53:43.388Z,0.55
2022-09-05T23:56:46.296Z,0.95
2022-09-05T23:59:48.979Z,0.70
